Startpagina
METAR-TAF:

METAR-TAF

Vliegvelden :

Luchthaven Toncontín

Tegucigalpa, Honduras

breedte: 14-03N, lengte: 087-13W, hoogte: 994 m

Actueel weer

Dit bericht is 33 minuten geleden gemaakt, om 23:00 UTC
Wind 10 kt uit het oosten
Temperatuur 27°C
Vochtigheid 45%
Druk 1017 hPa
Zicht 10 km of meer
Weinig wolken op 3000 ft

METAR: MHTG 192300Z 09010KT 9999 FEW030 27/14 Q1017 A3003 NOSIG

Tijdstip: 17:33 (23:33 UTC)

Verwachting

Dit bericht is 7 uur en het 33 minuten geleden gemaakt, om 16:00 UTC
Verwachting geldig van 19 om 18 UTC tot 20 om 18 UTC
Wind 10 kt uit het noordoosten
Zicht 10 km of meer
Weinig wolken op 3000 ft
Wijzigt naar
van 20 om 06 UTC tot 20 om 08 UTC
Verspreide wolken op 2600 ft

TAF: MHTG 191600Z 1918/2018 05010KT 9999 FEW030 TX29/1921Z TN13/2012Z BECMG 2006/2008 SCT026

Waarnemingen en weersverwachtingen van meer dan 4000 vliegvelden (METAR en TAF).

De beschikbare stations zijn de gele en rode punten op de kaart.

Ga met uw muis naar het station om de naam te zien.

Klik dan om waarnemingen en weersverwachtingen te zien.

kaart wijzigen: klik op de groene knoppen met een zwart kruis om in te zoomen, op de groene knop met een streepje om uit te zoomen of op de groene pijlen voor aangrenzende kaarten.


METAR-TAF: